Time;durP1;ratioP1;P1;durP2;ratioP2;P2;SDS_P1;SDS_P2;PMS_P1;PMS_P2;Temp;Humidity;BMP_temperature;BMP_pressure;BME280_temperature;BME280_humidity;BME280_pressure;Samples;Min_cycle;Max_cycle;Signal;HPM_P1;HPM_P2
2021/06/19 00:01:36;;;;;;;9.63;5.90;;;22.00;77.90;;;;;;1897174;76;21005;-49
2021/06/19 00:04:06;;;;;;;10.05;5.33;;;22.00;78.00;;;;;;1897203;74;21099;-53
2021/06/19 00:06:35;;;;;;;7.47;5.28;;;22.00;78.20;;;;;;1897233;75;21034;-52
2021/06/19 00:09:05;;;;;;;9.03;5.35;;;21.90;78.20;;;;;;1897352;76;21103;-51
2021/06/19 00:11:34;;;;;;;9.60;5.83;;;21.90;78.20;;;;;;1897202;76;21001;-52
2021/06/19 00:14:04;;;;;;;9.70;5.78;;;22.00;78.10;;;;;;1897250;76;21095;-52
2021/06/19 00:16:33;;;;;;;11.08;6.28;;;22.00;78.00;;;;;;1897295;76;21049;-52
2021/06/19 00:19:03;;;;;;;8.50;6.70;;;21.90;77.90;;;;;;1897204;75;21068;-52
2021/06/19 00:21:32;;;;;;;11.35;5.85;;;21.90;77.90;;;;;;1897215;76;21077;-52
2021/06/19 00:24:02;;;;;;;7.40;5.85;;;21.90;78.10;;;;;;1897302;76;21021;-51
2021/06/19 00:26:31;;;;;;;8.40;6.25;;;21.90;78.10;;;;;;1897215;75;21103;-52
2021/06/19 00:29:01;;;;;;;8.38;5.72;;;21.90;78.00;;;;;;1897240;76;21075;-51
2021/06/19 00:31:31;;;;;;;13.32;6.22;;;21.90;77.90;;;;;;1897183;74;21026;-51
2021/06/19 00:34:00;;;;;;;9.75;5.97;;;21.90;77.90;;;;;;1897337;75;21139;-52
2021/06/19 00:36:30;;;;;;;8.05;5.30;;;21.80;78.10;;;;;;1897300;76;21444;-52
2021/06/19 00:38:59;;;;;;;11.90;5.60;;;21.80;78.30;;;;;;1897219;75;21049;-51
2021/06/19 00:41:29;;;;;;;8.00;6.15;;;21.70;78.30;;;;;;1897209;74;21030;-52
2021/06/19 00:43:59;;;;;;;9.95;5.53;;;21.70;78.50;;;;;;1897162;75;21030;-52
2021/06/19 00:46:28;;;;;;;6.15;5.55;;;21.70;78.60;;;;;;1897235;75;21033;-52
2021/06/19 00:48:57;;;;;;;10.30;5.58;;;21.70;78.80;;;;;;1897263;76;21079;-53
2021/06/19 00:51:27;;;;;;;10.68;5.78;;;21.70;78.80;;;;;;1897204;76;21526;-53
2021/06/19 00:53:56;;;;;;;11.35;6.40;;;21.70;78.80;;;;;;1897339;74;21047;-51
2021/06/19 00:56:26;;;;;;;9.45;5.85;;;21.70;78.90;;;;;;1897124;76;21026;-51
2021/06/19 00:58:56;;;;;;;9.60;6.33;;;21.60;78.90;;;;;;1897251;76;21029;-52
2021/06/19 01:01:25;;;;;;;11.25;5.97;;;21.60;79.00;;;;;;1897193;76;21087;-52
2021/06/19 01:03:55;;;;;;;11.18;5.55;;;21.60;79.00;;;;;;1897171;76;21006;-52
2021/06/19 01:06:25;;;;;;;13.10;6.03;;;21.70;79.00;;;;;;1897206;76;21006;-53
2021/06/19 01:08:54;;;;;;;7.05;5.72;;;21.70;79.00;;;;;;1897191;74;21480;-53
2021/06/19 01:11:25;;;;;;;10.48;5.55;;;21.60;79.00;;;;;;1897294;76;21053;-53
2021/06/19 01:13:55;;;;;;;7.25;5.42;;;21.60;79.00;;;;;;1897215;76;21045;-52
2021/06/19 01:16:25;;;;;;;9.33;5.12;;;21.70;79.10;;;;;;1897180;76;21073;-53
2021/06/19 01:18:55;;;;;;;10.90;5.85;;;21.60;79.10;;;;;;1896747;74;21491;-53
2021/06/19 01:21:26;;;;;;;6.67;5.62;;;21.60;79.10;;;;;;1897204;76;21073;-53
2021/06/19 01:23:56;;;;;;;9.33;5.85;;;21.60;79.20;;;;;;1897221;76;21038;-52
2021/06/19 01:26:32;;;;;;;9.80;5.33;;;21.50;79.30;;;;;;1897216;74;21021;-53
2021/06/19 01:29:02;;;;;;;12.25;6.37;;;21.50;79.30;;;;;;1897241;74;21029;-53
2021/06/19 01:31:32;;;;;;;7.80;5.97;;;21.50;79.30;;;;;;1897183;76;21041;-53
2021/06/19 01:34:02;;;;;;;7.30;5.55;;;21.50;79.30;;;;;;1897417;76;21042;-52
2021/06/19 01:36:31;;;;;;;8.65;5.60;;;21.50;79.40;;;;;;1897225;74;21022;-51
2021/06/19 01:39:01;;;;;;;9.33;5.40;;;21.50;79.40;;;;;;1897187;75;21022;-52
2021/06/19 01:41:33;;;;;;;7.45;5.40;;;21.50;79.30;;;;;;1895847;74;21065;-52
2021/06/19 01:44:08;;;;;;;13.00;6.17;;;21.40;79.20;;;;;;1897187;76;21033;-52
2021/06/19 01:46:43;;;;;;;7.33;5.28;;;21.40;79.40;;;;;;1896424;76;21108;-52
2021/06/19 01:49:12;;;;;;;;;;;21.30;79.50;;;;;;1875167;76;21135;-53
2021/06/19 01:51:42;;;;;;;7.80;5.58;;;21.30;79.50;;;;;;1872339;76;20106;-53
2021/06/19 01:54:12;;;;;;;12.43;6.65;;;21.30;79.40;;;;;;1872285;75;21021;-53
2021/06/19 01:56:41;;;;;;;12.53;5.70;;;21.30;79.30;;;;;;1872256;75;21083;-53
2021/06/19 01:59:10;;;;;;;9.85;5.50;;;21.30;79.50;;;;;;1872198;75;21045;-52
2021/06/19 02:01:39;;;;;;;9.83;5.78;;;21.30;79.60;;;;;;1872281;77;21006;-53
2021/06/19 02:04:09;;;;;;;10.72;6.53;;;21.30;79.70;;;;;;1872296;77;21092;-53
2021/06/19 02:06:38;;;;;;;10.18;6.22;;;21.20;79.70;;;;;;1872261;77;21024;-53
2021/06/19 02:09:09;;;;;;;16.80;7.47;;;21.20;79.80;;;;;;1872128;77;21140;-52
2021/06/19 02:11:39;;;;;;;9.90;6.78;;;21.20;79.80;;;;;;1872125;75;21087;-53
2021/06/19 02:14:08;;;;;;;11.97;6.80;;;21.20;79.60;;;;;;1872144;77;21581;-53
2021/06/19 02:16:37;;;;;;;9.63;6.80;;;21.20;79.70;;;;;;1872240;77;21103;-54
2021/06/19 02:19:07;;;;;;;13.70;6.67;;;21.20;79.80;;;;;;1872324;75;21021;-53
2021/06/19 02:21:36;;;;;;;10.48;6.30;;;21.20;79.80;;;;;;1872216;77;21009;-53
2021/06/19 02:24:05;;;;;;;9.88;6.45;;;21.30;79.80;;;;;;1872108;75;21033;-53
2021/06/19 02:26:35;;;;;;;10.30;6.20;;;21.20;79.80;;;;;;1872194;75;21107;-53
2021/06/19 02:29:04;;;;;;;9.25;6.10;;;21.20;80.00;;;;;;1872162;75;21099;-52
2021/06/19 02:31:34;;;;;;;9.98;6.03;;;21.20;80.10;;;;;;1872242;75;21081;-53
2021/06/19 02:34:03;;;;;;;7.95;5.33;;;21.20;80.10;;;;;;1872296;75;21499;-52
2021/06/19 02:36:33;;;;;;;10.93;7.53;;;21.20;80.20;;;;;;1872087;75;21033;-53
2021/06/19 02:39:02;;;;;;;11.28;6.92;;;21.30;80.20;;;;;;1872118;76;21174;-52
2021/06/19 02:41:32;;;;;;;14.15;6.45;;;21.30;80.20;;;;;;1872214;75;21038;-53
2021/06/19 02:44:01;;;;;;;9.18;7.05;;;21.30;80.30;;;;;;1872145;76;21033;-52
2021/06/19 02:46:31;;;;;;;8.23;6.47;;;21.40;80.30;;;;;;1872197;77;21061;-53
2021/06/19 02:49:00;;;;;;;7.17;6.15;;;21.30;80.40;;;;;;1865953;75;21109;-53
2021/06/19 02:51:30;;;;;;;10.45;6.50;;;21.40;80.60;;;;;;1863274;76;21578;-53
2021/06/19 02:53:59;;;;;;;9.90;6.80;;;21.40;81.20;;;;;;1863191;77;21122;-52
2021/06/19 02:56:28;;;;;;;11.08;6.58;;;21.40;80.60;;;;;;1863270;77;21095;-53
2021/06/19 02:58:58;;;;;;;8.60;6.30;;;21.50;80.60;;;;;;1863131;77;21031;-53
2021/06/19 03:01:27;;;;;;;10.70;6.03;;;21.60;80.60;;;;;;1863103;77;21097;-53
2021/06/19 03:03:56;;;;;;;10.75;7.00;;;21.60;80.50;;;;;;1863229;77;21043;-51
2021/06/19 03:06:26;;;;;;;9.70;6.78;;;21.70;80.50;;;;;;1863067;76;21097;-53
2021/06/19 03:08:56;;;;;;;15.15;7.70;;;21.70;80.50;;;;;;1863073;77;21030;-53
2021/06/19 03:11:25;;;;;;;12.05;7.58;;;21.80;80.40;;;;;;1863097;77;21012;-50
2021/06/19 03:13:54;;;;;;;10.03;6.55;;;21.90;80.30;;;;;;1863213;77;21579;-52
2021/06/19 03:16:24;;;;;;;12.55;6.75;;;21.90;80.20;;;;;;1863112;77;21035;-52
2021/06/19 03:18:53;;;;;;;8.80;6.62;;;22.00;80.20;;;;;;1863169;77;21055;-52
2021/06/19 03:21:22;;;;;;;12.37;8.03;;;22.00;80.10;;;;;;1863263;77;21156;-53
2021/06/19 03:23:52;;;;;;;10.15;7.05;;;22.10;80.10;;;;;;1863077;76;21023;-52
2021/06/19 03:26:21;;;;;;;12.85;6.75;;;22.20;80.00;;;;;;1862918;77;21027;-50
2021/06/19 03:28:51;;;;;;;12.28;6.65;;;22.30;79.90;;;;;;1862979;76;21099;-52
2021/06/19 03:31:20;;;;;;;12.65;6.87;;;22.40;79.70;;;;;;1862939;76;21085;-52
2021/06/19 03:33:50;;;;;;;8.00;6.58;;;22.40;79.50;;;;;;1863219;76;21027;-53
2021/06/19 03:36:19;;;;;;;10.40;7.28;;;22.50;79.30;;;;;;1863145;76;21027;-52
2021/06/19 03:38:48;;;;;;;12.82;7.10;;;22.50;79.10;;;;;;1863350;76;21030;-52
2021/06/19 03:41:18;;;;;;;10.00;7.28;;;22.50;79.00;;;;;;1863156;76;21027;-52
2021/06/19 03:43:47;;;;;;;11.80;8.20;;;22.50;79.10;;;;;;1863262;76;21097;-53
2021/06/19 03:46:17;;;;;;;22.93;13.85;;;22.50;79.30;;;;;;1863236;76;21077;-52
2021/06/19 03:48:46;;;;;;;15.68;11.38;;;22.50;79.10;;;;;;1867344;75;21043;-53
2021/06/19 03:51:16;;;;;;;19.30;11.20;;;22.50;79.10;;;;;;1875371;76;21035;-52
2021/06/19 03:53:45;;;;;;;8.95;7.42;;;22.50;79.10;;;;;;1875197;76;21050;-52
2021/06/19 03:56:15;;;;;;;9.88;7.75;;;22.60;79.10;;;;;;1875425;76;21074;-52
2021/06/19 03:58:44;;;;;;;11.80;7.55;;;22.70;78.90;;;;;;1875369;75;21026;-52
2021/06/19 04:01:13;;;;;;;13.90;7.92;;;22.80;78.60;;;;;;1875366;76;21082;-52
2021/06/19 04:03:43;;;;;;;13.60;8.60;;;22.90;78.40;;;;;;1875490;76;21453;-51
2021/06/19 04:06:12;;;;;;;12.82;8.43;;;23.00;78.10;;;;;;1875358;75;21097;-52
2021/06/19 04:08:41;;;;;;;9.05;7.95;;;23.00;77.80;;;;;;1875272;76;21089;-52
2021/06/19 04:11:13;;;;;;;9.20;7.62;;;23.00;77.70;;;;;;1875240;76;21023;-52
2021/06/19 04:13:43;;;;;;;11.03;7.45;;;23.00;77.80;;;;;;1875232;76;21050;-52
2021/06/19 04:16:12;;;;;;;12.00;8.30;;;23.00;78.00;;;;;;1875216;76;21507;-52
2021/06/19 04:18:42;;;;;;;13.13;7.92;;;23.00;78.10;;;;;;1875134;76;21449;-51
2021/06/19 04:21:11;;;;;;;10.00;7.53;;;23.10;78.20;;;;;;1875214;76;21030;-50
2021/06/19 04:23:41;;;;;;;10.35;8.63;;;23.20;78.30;;;;;;1875185;76;21485;-52
2021/06/19 04:26:10;;;;;;;9.38;8.05;;;23.30;78.00;;;;;;1875236;76;21108;-52
2021/06/19 04:28:39;;;;;;;11.00;8.93;;;23.40;77.80;;;;;;1875317;76;21030;-51
2021/06/19 04:31:09;;;;;;;12.45;8.35;;;23.50;77.40;;;;;;1875173;76;21096;-52
2021/06/19 04:33:39;;;;;;;12.33;8.13;;;23.50;77.20;;;;;;1875327;76;21080;-51
2021/06/19 04:36:12;;;;;;;10.30;7.72;;;23.50;77.20;;;;;;1842002;76;21023;-51
2021/06/19 04:38:40;;;;;;;12.40;10.88;;;23.50;77.10;;;;;;1875369;76;21003;-52
2021/06/19 04:41:22;;;;;;;17.98;7.62;;;23.50;77.10;;;;;;1875282;76;21006;-51
2021/06/19 04:44:04;;;;;;;12.10;8.03;;;23.40;77.20;;;;;;1872712;76;21047;-52
2021/06/19 04:46:11;;;;;;;8.85;7.85;;;23.40;77.40;;;;;;1870232;76;21026;-53
2021/06/19 04:48:41;;;;;;;11.00;7.45;;;23.50;77.40;;;;;;1874696;76;21031;-52
2021/06/19 04:51:12;;;;;;;11.68;7.75;;;23.60;77.40;;;;;;1863161;76;21109;-50
2021/06/19 04:53:41;;;;;;;8.25;6.40;;;23.80;77.00;;;;;;1863194;77;21473;-52
2021/06/19 04:56:10;;;;;;;11.97;6.40;;;23.80;76.80;;;;;;1863123;77;21121;-52
2021/06/19 04:58:40;;;;;;;13.72;8.85;;;24.00;76.80;;;;;;1863146;77;21023;-52
2021/06/19 05:01:09;;;;;;;7.80;7.00;;;24.00;76.00;;;;;;1863291;77;21089;-52
2021/06/19 05:03:39;;;;;;;10.20;8.73;;;24.00;76.10;;;;;;1863183;76;21031;-54
2021/06/19 05:06:08;;;;;;;10.45;7.42;;;23.90;76.20;;;;;;1863144;77;21031;-52
2021/06/19 05:08:40;;;;;;;10.08;7.55;;;23.80;76.30;;;;;;1863200;77;21101;-52
2021/06/19 05:11:09;;;;;;;9.20;7.35;;;23.70;76.50;;;;;;1863105;77;20999;-53
2021/06/19 05:13:39;;;;;;;8.55;7.28;;;23.60;77.00;;;;;;1863243;77;21031;-51
2021/06/19 05:16:08;;;;;;;9.10;7.05;;;23.60;77.10;;;;;;1863078;76;21031;-53
2021/06/19 05:18:37;;;;;;;15.43;7.87;;;23.60;77.60;;;;;;1863028;77;21035;-52
2021/06/19 05:21:07;;;;;;;15.65;11.05;;;23.60;77.60;;;;;;1863003;77;21023;-53
2021/06/19 05:23:36;;;;;;;8.23;7.15;;;23.80;77.70;;;;;;1863009;76;21027;-51
2021/06/19 05:26:05;;;;;;;9.68;7.47;;;24.00;77.20;;;;;;1863146;77;21078;-52
2021/06/19 05:28:35;;;;;;;10.85;7.67;;;24.20;76.90;;;;;;1863211;77;21500;-52
2021/06/19 05:31:05;;;;;;;9.58;7.05;;;24.30;76.50;;;;;;1862927;77;21073;-52
2021/06/19 05:33:34;;;;;;;10.63;7.53;;;24.30;76.50;;;;;;1862995;76;21203;-51
2021/06/19 05:36:04;;;;;;;15.78;9.53;;;24.50;76.60;;;;;;1863128;77;21043;-51
2021/06/19 05:38:33;;;;;;;9.53;6.33;;;24.70;76.10;;;;;;1863107;76;21093;-52
2021/06/19 05:41:03;;;;;;;8.75;7.30;;;24.80;75.90;;;;;;1863172;77;21007;-50
2021/06/19 05:43:32;;;;;;;9.85;6.92;;;24.90;75.20;;;;;;1863054;77;21038;-52
2021/06/19 05:46:02;;;;;;;9.53;6.70;;;24.90;74.80;;;;;;1863218;76;21093;-51
2021/06/19 05:48:31;;;;;;;10.65;7.05;;;25.00;75.00;;;;;;1863154;77;21027;-52
2021/06/19 05:51:01;;;;;;;10.63;7.30;;;25.10;74.80;;;;;;1887871;75;21053;-53
2021/06/19 05:53:30;;;;;;;11.18;7.53;;;25.20;74.50;;;;;;1897100;74;21022;-52
2021/06/19 05:56:00;;;;;;;7.60;6.40;;;25.30;74.30;;;;;;1897131;76;21030;-52
2021/06/19 05:58:29;;;;;;;9.38;7.12;;;25.30;73.90;;;;;;1897192;76;21087;-53
2021/06/19 06:00:59;;;;;;;7.42;5.95;;;25.20;74.00;;;;;;1896950;76;21030;-53
2021/06/19 06:03:28;;;;;;;10.80;6.60;;;25.20;73.80;;;;;;1897048;76;21034;-51
2021/06/19 06:05:58;;;;;;;8.95;6.10;;;25.20;74.00;;;;;;1897059;74;21048;-53
2021/06/19 06:08:27;;;;;;;7.70;5.12;;;25.20;73.90;;;;;;1897204;76;21029;-53
2021/06/19 06:10:56;;;;;;;11.80;6.78;;;25.30;73.60;;;;;;1865053;76;21042;-53
2021/06/19 06:13:26;;;;;;;8.08;5.72;;;25.40;73.60;;;;;;1897114;75;21086;-52
2021/06/19 06:15:55;;;;;;;9.68;5.72;;;25.50;73.40;;;;;;1897125;76;21441;-52
2021/06/19 06:18:24;;;;;;;8.10;6.30;;;25.60;73.30;;;;;;1897295;76;21091;-53
2021/06/19 06:20:54;;;;;;;8.75;5.87;;;25.60;73.00;;;;;;1897229;76;21026;-53
2021/06/19 06:23:24;;;;;;;7.90;5.92;;;25.80;73.20;;;;;;1897368;75;21103;-52
2021/06/19 06:25:53;;;;;;;8.35;5.70;;;25.80;73.20;;;;;;1897204;74;21046;-54
2021/06/19 06:28:23;;;;;;;11.12;6.53;;;26.00;72.60;;;;;;1897129;76;21080;-52
2021/06/19 06:30:56;;;;;;;12.05;6.35;;;25.90;72.20;;;;;;1897114;76;21025;-52
2021/06/19 06:33:26;;;;;;;7.83;6.20;;;25.80;72.30;;;;;;1897270;75;21097;-52
2021/06/19 06:35:56;;;;;;;12.40;5.75;;;25.70;72.90;;;;;;1897142;76;21147;-52
2021/06/19 06:38:25;;;;;;;11.55;6.75;;;25.80;73.50;;;;;;1897219;75;21736;-52
2021/06/19 06:40:54;;;;;;;10.10;5.97;;;25.80;73.20;;;;;;1897074;76;21096;-52
2021/06/19 06:43:23;;;;;;;9.93;5.62;;;25.80;73.00;;;;;;1897106;75;21589;-52
2021/06/19 06:45:53;;;;;;;6.92;6.08;;;25.80;73.00;;;;;;1897005;75;21025;-52
2021/06/19 06:48:23;;;;;;;12.55;7.03;;;25.80;73.10;;;;;;1897065;76;21083;-53
2021/06/19 06:50:52;;;;;;;13.22;6.15;;;25.80;73.10;;;;;;1897156;75;21054;-52
2021/06/19 06:53:22;;;;;;;8.90;5.83;;;26.00;73.00;;;;;;1897246;76;21076;-53
2021/06/19 06:55:51;;;;;;;9.50;5.85;;;26.10;72.60;;;;;;1897086;76;21026;-53
2021/06/19 06:58:20;;;;;;;10.68;8.10;;;26.30;72.80;;;;;;1897154;76;21029;-53
2021/06/19 07:00:50;;;;;;;8.08;5.22;;;26.40;72.40;;;;;;1897161;76;21458;-53
2021/06/19 07:03:19;;;;;;;10.85;5.85;;;26.50;71.80;;;;;;1897088;75;21029;-53
2021/06/19 07:05:49;;;;;;;7.87;5.03;;;26.60;71.70;;;;;;1897146;76;21049;-53
2021/06/19 07:08:18;;;;;;;10.40;5.62;;;26.70;71.80;;;;;;1897129;76;21097;-53
2021/06/19 07:10:48;;;;;;;11.83;5.80;;;26.70;71.70;;;;;;1897034;76;21001;-53
2021/06/19 07:13:17;;;;;;;9.33;5.37;;;26.70;71.60;;;;;;1897256;76;21095;-53
2021/06/19 07:15:47;;;;;;;6.00;5.25;;;26.80;71.40;;;;;;1897072;76;21030;-54
2021/06/19 07:18:16;;;;;;;6.78;5.50;;;26.70;71.40;;;;;;1897221;75;21013;-53
2021/06/19 07:20:45;;;;;;;7.15;5.78;;;26.80;71.40;;;;;;1897143;74;21135;-53
2021/06/19 07:23:15;;;;;;;8.45;4.92;;;26.70;71.30;;;;;;1897153;76;21029;-53
2021/06/19 07:25:44;;;;;;;12.88;6.10;;;26.80;71.60;;;;;;1897196;76;21436;-53
2021/06/19 07:28:13;;;;;;;9.28;5.50;;;26.80;71.50;;;;;;1897118;74;21030;-54
2021/06/19 07:30:43;;;;;;;5.85;4.55;;;26.90;71.40;;;;;;1897125;75;21080;-53
2021/06/19 07:33:12;;;;;;;8.30;5.15;;;27.10;71.20;;;;;;1897104;76;21006;-53
2021/06/19 07:35:42;;;;;;;6.20;4.40;;;27.20;70.90;;;;;;1897006;75;21025;-53
2021/06/19 07:38:11;;;;;;;19.73;10.58;;;27.20;70.30;;;;;;1896960;76;21120;-54
2021/06/19 07:40:41;;;;;;;39.03;24.00;;;27.30;70.20;;;;;;1896824;75;21135;-53
2021/06/19 07:43:10;;;;;;;6.72;6.08;;;27.30;70.10;;;;;;1896903;76;21029;-54
2021/06/19 07:45:40;;;;;;;11.43;5.60;;;27.40;70.20;;;;;;1896952;76;21049;-55
2021/06/19 07:48:09;;;;;;;31.27;15.90;;;27.50;70.10;;;;;;1896856;75;21034;-55
2021/06/19 07:50:40;;;;;;;7.65;5.00;;;27.50;69.80;;;;;;1893538;75;21034;-54
2021/06/19 07:53:10;;;;;;;12.30;7.75;;;27.60;69.40;;;;;;1863151;76;21559;-54
2021/06/19 07:55:39;;;;;;;22.15;10.60;;;27.60;69.40;;;;;;1863118;77;21027;-54
2021/06/19 07:58:09;;;;;;;10.50;6.72;;;27.60;69.60;;;;;;1863014;76;21027;-55
2021/06/19 08:00:38;;;;;;;6.85;6.15;;;27.60;69.50;;;;;;1863043;77;21097;-54
2021/06/19 08:03:08;;;;;;;6.25;5.22;;;27.60;69.30;;;;;;1861714;77;21094;-53
2021/06/19 08:05:37;;;;;;;10.48;6.42;;;27.50;69.40;;;;;;1861775;77;21031;-54
2021/06/19 08:08:07;;;;;;;10.70;5.87;;;27.60;69.50;;;;;;1862805;76;21099;-54
2021/06/19 08:10:36;;;;;;;5.85;4.65;;;27.70;69.60;;;;;;1862181;76;21086;-55
2021/06/19 08:13:06;;;;;;;9.00;5.40;;;27.80;68.90;;;;;;1861904;76;21090;-54
2021/06/19 08:15:36;;;;;;;11.43;3.87;;;28.00;69.20;;;;;;1862851;77;21105;-55
2021/06/19 08:18:05;;;;;;;14.58;4.33;;;28.20;67.90;;;;;;1862802;76;21027;-54
2021/06/19 08:20:35;;;;;;;7.67;3.50;;;28.30;66.40;;;;;;1862699;76;21051;-54
2021/06/19 08:23:04;;;;;;;6.25;3.27;;;28.40;65.50;;;;;;1862938;77;21031;-54
2021/06/19 08:25:34;;;;;;;3.20;2.60;;;28.50;64.70;;;;;;1863148;77;21007;-54
2021/06/19 08:28:03;;;;;;;3.80;3.20;;;28.60;64.10;;;;;;1863136;77;21035;-54
2021/06/19 08:30:32;;;;;;;9.58;3.60;;;28.70;63.90;;;;;;1863148;76;21113;-54
2021/06/19 08:33:02;;;;;;;10.40;4.45;;;28.80;63.70;;;;;;1863167;76;21097;-55
2021/06/19 08:35:31;;;;;;;6.05;3.22;;;28.80;64.00;;;;;;1863182;77;21035;-54
2021/06/19 08:38:00;;;;;;;7.60;3.20;;;28.80;63.10;;;;;;1863143;76;21515;-55
2021/06/19 08:40:31;;;;;;;4.55;3.20;;;28.90;62.90;;;;;;1863076;76;21023;-54
2021/06/19 08:43:00;;;;;;;7.35;4.35;;;29.00;62.90;;;;;;1863252;77;21047;-54
2021/06/19 08:45:33;;;;;;;7.67;3.37;;;29.00;63.40;;;;;;1863093;77;21114;-55
2021/06/19 08:48:03;;;;;;;6.12;3.35;;;29.10;62.80;;;;;;1862589;76;21442;-55
2021/06/19 08:50:35;;;;;;;7.33;3.87;;;29.30;62.70;;;;;;1863279;77;21031;-54
2021/06/19 08:53:04;;;;;;;5.85;3.75;;;29.40;62.30;;;;;;1863355;75;21530;-54
2021/06/19 08:55:34;;;;;;;7.90;3.00;;;29.40;61.50;;;;;;1863171;77;21074;-54
2021/06/19 08:58:03;;;;;;;10.03;4.00;;;29.40;61.40;;;;;;1863144;77;21035;-54
2021/06/19 09:00:32;;;;;;;5.25;3.02;;;29.30;61.60;;;;;;1863136;77;21081;-54
2021/06/19 09:03:02;;;;;;;5.00;3.12;;;29.30;61.20;;;;;;1863271;76;21027;-54
2021/06/19 09:05:32;;;;;;;8.15;4.45;;;29.30;61.40;;;;;;1863105;77;21077;-54
2021/06/19 09:08:01;;;;;;;8.40;3.40;;;29.40;62.30;;;;;;1863238;76;21019;-54
2021/06/19 09:10:35;;;;;;;6.83;3.22;;;29.40;61.70;;;;;;1863159;76;21043;-54
2021/06/19 09:13:15;;;;;;;4.92;3.22;;;29.50;61.60;;;;;;1863390;76;21105;-54
2021/06/19 09:15:48;;;;;;;7.65;3.45;;;29.50;61.40;;;;;;1863220;77;21062;-54
2021/06/19 09:18:19;;;;;;;3.37;3.08;;;29.60;61.10;;;;;;1862729;77;21042;-54
2021/06/19 09:20:57;;;;;;;3.50;3.00;;;29.60;61.00;;;;;;1863098;76;21105;-54
2021/06/19 09:23:35;;;;;;;6.58;3.27;;;29.70;60.80;;;;;;1863141;76;21129;-54
2021/06/19 09:26:16;;;;;;;9.48;3.72;;;29.60;60.50;;;;;;1863190;76;21082;-54
2021/06/19 09:29:16;;;;;;;4.97;3.95;;;29.50;61.10;;;;;;1863179;77;21077;-54
2021/06/19 09:31:48;;;;;;;4.83;3.35;;;29.50;61.20;;;;;;1863278;76;21027;-54
2021/06/19 09:34:23;;;;;;;6.72;4.35;;;29.40;60.90;;;;;;1863139;77;21023;-54
2021/06/19 09:36:54;;;;;;;7.17;4.53;;;29.40;60.60;;;;;;1863257;76;21047;-54
2021/06/19 09:39:26;;;;;;;5.22;3.60;;;29.30;60.70;;;;;;1863108;76;21031;-54
2021/06/19 09:41:58;;;;;;;6.42;3.50;;;29.30;61.10;;;;;;1862676;77;21081;-54
2021/06/19 09:44:46;;;;;;;14.95;5.42;;;29.30;61.70;;;;;;1863288;77;21089;-54
2021/06/19 09:47:20;;;;;;;7.72;3.60;;;29.30;62.00;;;;;;1863106;77;21485;-55
2021/06/19 09:49:50;;;;;;;6.97;3.85;;;29.30;61.70;;;;;;1863181;76;21039;-54
2021/06/19 09:52:30;;;;;;;7.70;3.67;;;29.30;61.50;;;;;;1863146;76;21056;-54
2021/06/19 09:55:01;;;;;;;4.75;3.52;;;29.30;61.10;;;;;;1863071;77;21063;-54
2021/06/19 09:57:41;;;;;;;4.65;3.17;;;29.20;61.50;;;;;;1862995;76;21093;-54
2021/06/19 10:00:16;;;;;;;10.28;3.92;;;29.20;61.70;;;;;;1863134;77;21027;-54
2021/06/19 10:02:45;;;;;;;;;;;29.10;61.90;;;;;;1865805;77;21085;-55
2021/06/19 10:05:14;;;;;;;5.50;3.72;;;29.10;62.60;;;;;;1863148;77;20106;-54
2021/06/19 10:07:44;;;;;;;9.05;4.08;;;29.00;62.50;;;;;;1863173;77;21027;-54
2021/06/19 10:10:14;;;;;;;9.18;3.55;;;29.00;62.80;;;;;;1863186;77;21008;-54
2021/06/19 10:12:44;;;;;;;5.50;3.05;;;29.00;63.20;;;;;;1863123;77;21031;-55
2021/06/19 10:15:15;;;;;;;12.03;4.65;;;29.00;63.30;;;;;;1863067;76;21027;-54
2021/06/19 10:17:46;;;;;;;5.20;4.00;;;29.00;63.30;;;;;;1863178;77;21066;-54
2021/06/19 10:20:18;;;;;;;6.40;3.70;;;29.00;64.10;;;;;;1863111;77;21085;-54
2021/06/19 10:22:47;;;;;;;10.35;4.37;;;29.00;64.50;;;;;;1863142;76;21031;-55
2021/06/19 10:25:21;;;;;;;7.15;4.10;;;29.00;63.60;;;;;;1863081;76;21054;-54
2021/06/19 10:27:50;;;;;;;5.90;4.33;;;29.00;63.60;;;;;;1862942;76;21031;-55
2021/06/19 10:30:20;;;;;;;8.20;3.98;;;29.10;63.30;;;;;;1863080;77;21098;-54
2021/06/19 10:32:51;;;;;;;4.33;3.92;;;29.10;62.70;;;;;;1863063;76;21098;-54
2021/06/19 10:35:22;;;;;;;3.87;3.45;;;29.20;62.70;;;;;;1863001;77;21007;-55
2021/06/19 10:37:53;;;;;;;7.15;4.00;;;29.20;62.70;;;;;;1863040;77;21030;-54
2021/06/19 10:40:25;;;;;;;6.47;3.67;;;29.20;63.20;;;;;;1862972;76;21483;-54
2021/06/19 10:43:17;;;;;;;11.97;5.67;;;29.20;63.10;;;;;;1862268;77;21096;-54
2021/06/19 10:45:46;;;;;;;7.95;6.25;;;29.20;62.70;;;;;;1862899;76;21109;-54
2021/06/19 10:48:17;;;;;;;18.80;7.50;;;29.20;62.60;;;;;;1863033;77;21554;-54
2021/06/19 10:50:53;;;;;;;9.38;6.45;;;29.30;63.10;;;;;;1863147;76;21027;-54
2021/06/19 10:53:22;;;;;;;4.78;3.05;;;29.30;62.80;;;;;;1877911;75;21077;-54
2021/06/19 10:55:55;;;;;;;3.90;3.33;;;29.40;62.60;;;;;;1897074;76;21087;-54
2021/06/19 10:58:29;;;;;;;11.15;4.35;;;29.40;61.70;;;;;;1897284;75;21022;-53
2021/06/19 11:01:01;;;;;;;7.47;4.70;;;29.40;61.90;;;;;;1897065;76;21087;-54
2021/06/19 11:03:51;;;;;;;8.85;4.72;;;29.30;62.10;;;;;;1897128;76;21017;-53
2021/06/19 11:06:27;;;;;;;13.58;3.87;;;29.40;62.40;;;;;;1897083;75;21026;-54
2021/06/19 11:09:16;;;;;;;5.47;2.98;;;29.40;62.70;;;;;;1897107;74;21092;-54
2021/06/19 11:11:54;;;;;;;6.35;3.50;;;29.40;62.20;;;;;;1896125;76;21105;-54
2021/06/19 11:14:46;;;;;;;9.18;4.33;;;29.50;62.10;;;;;;1897068;76;21006;-54
2021/06/19 11:17:27;;;;;;;11.22;4.20;;;29.50;62.00;;;;;;1897136;74;21074;-55
2021/06/19 11:20:06;;;;;;;7.95;5.00;;;29.50;62.60;;;;;;1897096;75;21084;-54
2021/06/19 11:22:56;;;;;;;7.47;3.85;;;29.50;62.20;;;;;;1897219;75;21096;-54
2021/06/19 11:25:39;;;;;;;11.73;4.22;;;29.60;62.00;;;;;;1897102;76;21002;-54
2021/06/19 11:28:22;;;;;;;5.37;4.08;;;29.70;61.90;;;;;;1896183;74;21018;-54
2021/06/19 11:30:59;;;;;;;8.28;3.95;;;29.80;62.10;;;;;;1897052;75;21028;-54
2021/06/19 11:33:35;;;;;;;6.62;4.40;;;29.90;61.50;;;;;;1897135;74;21088;-55
2021/06/19 11:36:07;;;;;;;11.43;4.37;;;29.90;61.50;;;;;;1897205;76;21440;-55
2021/06/19 11:38:57;;;;;;;5.40;4.00;;;30.00;61.60;;;;;;1897244;74;21096;-54
2021/06/19 11:41:36;;;;;;;6.33;4.47;;;30.00;61.20;;;;;;1897031;75;21111;-54
2021/06/19 11:44:14;;;;;;;6.47;4.33;;;30.00;61.30;;;;;;1897326;76;21038;-54
2021/06/19 11:46:51;;;;;;;7.05;4.80;;;29.90;61.10;;;;;;1897173;75;21088;-55
2021/06/19 11:49:25;;;;;;;10.38;4.95;;;30.00;61.20;;;;;;1897093;76;21030;-54
2021/06/19 11:51:55;;;;;;;8.15;5.15;;;30.00;61.50;;;;;;1897280;76;21050;-55
2021/06/19 11:54:25;;;;;;;6.85;4.30;;;30.10;61.50;;;;;;1874089;75;21133;-55
2021/06/19 11:56:55;;;;;;;38.83;7.22;;;30.10;61.30;;;;;;1863075;76;21031;-54
2021/06/19 11:59:27;;;;;;;6.53;5.03;;;30.20;61.80;;;;;;1863111;77;21109;-54
2021/06/19 12:01:56;;;;;;;6.95;4.17;;;30.40;61.20;;;;;;1863040;76;20995;-55
2021/06/19 12:04:31;;;;;;;6.12;3.40;;;30.60;61.30;;;;;;1863265;76;21008;-54
2021/06/19 12:07:02;;;;;;;6.15;3.75;;;30.70;61.00;;;;;;1863213;77;21085;-54
2021/06/19 12:09:33;;;;;;;6.60;3.72;;;30.90;60.30;;;;;;1863187;76;21027;-54
2021/06/19 12:12:08;;;;;;;6.60;3.27;;;30.90;60.10;;;;;;1863190;76;21097;-54
2021/06/19 12:14:39;;;;;;;3.60;3.30;;;30.90;59.80;;;;;;1863231;77;21075;-55
2021/06/19 12:17:11;;;;;;;6.85;3.77;;;30.80;60.10;;;;;;1863202;77;21093;-55
2021/06/19 12:19:42;;;;;;;8.13;3.90;;;30.70;60.50;;;;;;1863268;77;21528;-54
2021/06/19 12:22:16;;;;;;;8.75;3.60;;;30.60;61.00;;;;;;1863133;77;21477;-54
2021/06/19 12:24:48;;;;;;;7.95;3.70;;;30.50;61.90;;;;;;1863127;77;21183;-55
2021/06/19 12:27:22;;;;;;;7.08;4.60;;;30.50;62.50;;;;;;1863232;77;21701;-54
2021/06/19 12:29:56;;;;;;;7.20;3.83;;;30.40;62.90;;;;;;1863272;77;21098;-54
2021/06/19 12:32:34;;;;;;;4.65;4.12;;;30.30;63.50;;;;;;1863331;76;21142;-55
2021/06/19 12:35:06;;;;;;;9.85;3.40;;;30.20;63.90;;;;;;1863211;77;21031;-55
2021/06/19 12:37:37;;;;;;;5.92;3.75;;;30.20;64.40;;;;;;1863237;76;21027;-54
2021/06/19 12:40:12;;;;;;;4.67;3.62;;;30.30;64.60;;;;;;1863194;76;21007;-55
2021/06/19 12:42:47;;;;;;;6.12;3.72;;;30.40;64.80;;;;;;1863146;77;21039;-55
2021/06/19 12:45:18;;;;;;;6.92;3.80;;;30.50;65.20;;;;;;1863186;77;21027;-55
2021/06/19 12:47:50;;;;;;;5.35;3.87;;;30.60;64.60;;;;;;1863233;77;21140;-55
2021/06/19 12:50:22;;;;;;;10.23;3.85;;;30.70;64.50;;;;;;1863243;76;21031;-55
2021/06/19 12:53:02;;;;;;;8.43;3.90;;;30.80;64.90;;;;;;1861324;77;21531;-55
2021/06/19 12:55:35;;;;;;;8.50;3.92;;;30.80;64.50;;;;;;1892636;76;21041;-55
2021/06/19 12:58:15;;;;;;;5.22;3.83;;;30.80;64.60;;;;;;1897267;76;21049;-55
2021/06/19 13:00:56;;;;;;;13.83;4.12;;;30.80;64.50;;;;;;1897191;76;21033;-55
2021/06/19 13:03:33;;;;;;;5.33;4.05;;;30.60;64.70;;;;;;1897181;75;21006;-55